sensor_id;sensor_type;location;lat;lon;timestamp;pressure;altitude;pressure_sealevel;temperature;humidity
27984;BME280;15317;50.360;8.726;2023-04-30T00:04:19;100001.44;;;9.65;100.00
27984;BME280;15317;50.360;8.726;2023-04-30T00:09:22;100000.69;;;9.44;100.00
27984;BME280;15317;50.360;8.726;2023-04-30T00:14:27;100007.94;;;9.24;100.00
27984;BME280;15317;50.360;8.726;2023-04-30T00:19:30;100003.63;;;9.12;100.00
27984;BME280;15317;50.360;8.726;2023-04-30T00:24:33;100006.09;;;8.94;100.00
27984;BME280;15317;50.360;8.726;2023-04-30T00:29:37;100013.06;;;8.87;100.00
27984;BME280;15317;50.360;8.726;2023-04-30T00:34:41;100008.94;;;8.83;100.00
27984;BME280;15317;50.360;8.726;2023-04-30T00:39:44;100014.91;;;8.77;100.00
27984;BME280;15317;50.360;8.726;2023-04-30T00:44:48;100020.41;;;8.66;100.00
27984;BME280;15317;50.360;8.726;2023-04-30T00:49:51;100015.47;;;8.50;100.00
27984;BME280;15317;50.360;8.726;2023-04-30T00:54:55;100020.56;;;8.44;100.00
27984;BME280;15317;50.360;8.726;2023-04-30T01:00:00;100019.81;;;8.42;100.00
27984;BME280;15317;50.360;8.726;2023-04-30T01:05:04;100025.19;;;8.32;100.00
27984;BME280;15317;50.360;8.726;2023-04-30T01:10:08;100025.66;;;8.26;100.00
27984;BME280;15317;50.360;8.726;2023-04-30T01:15:18;100029.97;;;8.28;100.00
27984;BME280;15317;50.360;8.726;2023-04-30T01:20:26;100026.19;;;8.20;100.00
27984;BME280;15317;50.360;8.726;2023-04-30T01:25:42;100033.75;;;8.16;100.00
27984;BME280;15317;50.360;8.726;2023-04-30T01:30:47;100029.19;;;8.17;100.00
27984;BME280;15317;50.360;8.726;2023-04-30T01:41:28;100038.94;;;8.08;100.00
27984;BME280;15317;50.360;8.726;2023-04-30T01:46:34;100038.72;;;8.00;100.00
27984;BME280;15317;50.360;8.726;2023-04-30T01:51:39;100045.53;;;7.94;100.00
27984;BME280;15317;50.360;8.726;2023-04-30T01:56:48;100043.91;;;7.92;100.00
27984;BME280;15317;50.360;8.726;2023-04-30T02:01:55;100048.47;;;7.91;100.00
27984;BME280;15317;50.360;8.726;2023-04-30T02:06:58;100054.03;;;7.90;100.00
27984;BME280;15317;50.360;8.726;2023-04-30T02:12:01;100052.81;;;7.83;100.00
27984;BME280;15317;50.360;8.726;2023-04-30T02:17:07;100054.09;;;7.68;100.00
27984;BME280;15317;50.360;8.726;2023-04-30T02:22:10;100060.03;;;7.62;100.00
27984;BME280;15317;50.360;8.726;2023-04-30T02:27:13;100070.72;;;7.63;100.00
27984;BME280;15317;50.360;8.726;2023-04-30T02:32:17;100068.75;;;7.54;100.00
27984;BME280;15317;50.360;8.726;2023-04-30T02:37:20;100065.56;;;7.60;100.00
27984;BME280;15317;50.360;8.726;2023-04-30T02:42:23;100065.69;;;7.59;100.00
27984;BME280;15317;50.360;8.726;2023-04-30T02:47:28;100064.97;;;7.57;100.00
27984;BME280;15317;50.360;8.726;2023-04-30T02:52:31;100061.63;;;7.64;100.00
27984;BME280;15317;50.360;8.726;2023-04-30T02:57:34;100064.97;;;7.57;100.00
27984;BME280;15317;50.360;8.726;2023-04-30T03:02:38;100062.25;;;7.57;100.00
27984;BME280;15317;50.360;8.726;2023-04-30T03:07:41;100064.72;;;7.48;100.00
27984;BME280;15317;50.360;8.726;2023-04-30T03:12:44;100060.91;;;7.51;100.00
27984;BME280;15317;50.360;8.726;2023-04-30T03:17:49;100064.84;;;7.47;100.00
27984;BME280;15317;50.360;8.726;2023-04-30T03:22:53;100073.34;;;7.42;100.00
27984;BME280;15317;50.360;8.726;2023-04-30T03:27:56;100073.00;;;7.36;100.00
27984;BME280;15317;50.360;8.726;2023-04-30T03:33:01;100080.22;;;7.24;100.00
27984;BME280;15317;50.360;8.726;2023-04-30T03:38:04;100074.97;;;7.23;100.00
27984;BME280;15317;50.360;8.726;2023-04-30T03:43:07;100078.53;;;7.23;100.00
27984;BME280;15317;50.360;8.726;2023-04-30T03:48:11;100079.63;;;7.21;100.00
27984;BME280;15317;50.360;8.726;2023-04-30T03:53:15;100073.38;;;7.20;100.00
27984;BME280;15317;50.360;8.726;2023-04-30T03:58:18;100078.78;;;7.20;100.00
27984;BME280;15317;50.360;8.726;2023-04-30T04:03:23;100082.94;;;7.13;100.00
27984;BME280;15317;50.360;8.726;2023-04-30T04:08:26;100078.28;;;7.04;100.00
27984;BME280;15317;50.360;8.726;2023-04-30T04:13:29;100074.38;;;7.08;100.00
27984;BME280;15317;50.360;8.726;2023-04-30T04:18:34;100081.84;;;7.04;100.00
27984;BME280;15317;50.360;8.726;2023-04-30T04:23:37;100078.28;;;7.04;100.00
27984;BME280;15317;50.360;8.726;2023-04-30T04:28:41;100076.31;;;7.06;100.00
27984;BME280;15317;50.360;8.726;2023-04-30T04:33:45;100080.50;;;6.99;100.00
27984;BME280;15317;50.360;8.726;2023-04-30T04:38:48;100081.34;;;6.99;100.00
27984;BME280;15317;50.360;8.726;2023-04-30T04:43:51;100083.94;;;7.01;100.00
27984;BME280;15317;50.360;8.726;2023-04-30T04:48:56;100088.00;;;7.06;100.00
27984;BME280;15317;50.360;8.726;2023-04-30T04:53:59;100089.81;;;7.17;100.00
27984;BME280;15317;50.360;8.726;2023-04-30T04:59:02;100091.31;;;7.21;100.00
27984;BME280;15317;50.360;8.726;2023-04-30T05:04:06;100091.31;;;7.21;100.00
27984;BME280;15317;50.360;8.726;2023-04-30T05:09:10;100091.28;;;7.32;100.00
27984;BME280;15317;50.360;8.726;2023-04-30T05:14:13;100094.34;;;7.39;100.00
27984;BME280;15317;50.360;8.726;2023-04-30T05:19:18;100094.97;;;7.42;100.00
27984;BME280;15317;50.360;8.726;2023-04-30T05:24:21;100094.19;;;7.51;100.00
27984;BME280;15317;50.360;8.726;2023-04-30T05:29:24;100096.28;;;7.59;100.00
27984;BME280;15317;50.360;8.726;2023-04-30T05:34:28;100090.34;;;7.65;100.00
27984;BME280;15317;50.360;8.726;2023-04-30T05:39:31;100087.63;;;7.76;100.00
27984;BME280;15317;50.360;8.726;2023-04-30T05:44:34;100089.72;;;7.84;100.00
27984;BME280;15317;50.360;8.726;2023-04-30T05:49:39;100090.66;;;7.94;100.00
27984;BME280;15317;50.360;8.726;2023-04-30T05:54:42;100089.09;;;8.12;100.00
27984;BME280;15317;50.360;8.726;2023-04-30T05:59:45;100093.59;;;8.23;100.00
27984;BME280;15317;50.360;8.726;2023-04-30T06:04:50;100082.88;;;8.32;100.00
27984;BME280;15317;50.360;8.726;2023-04-30T06:09:53;100088.81;;;8.47;100.00
27984;BME280;15317;50.360;8.726;2023-04-30T06:14:56;100092.06;;;8.62;100.00
27984;BME280;15317;50.360;8.726;2023-04-30T06:20:01;100095.53;;;8.73;100.00
27984;BME280;15317;50.360;8.726;2023-04-30T06:25:08;100094.22;;;8.89;100.00
27984;BME280;15317;50.360;8.726;2023-04-30T06:30:12;100094.09;;;9.21;100.00
27984;BME280;15317;50.360;8.726;2023-04-30T06:35:16;100084.34;;;9.58;100.00
27984;BME280;15317;50.360;8.726;2023-04-30T06:40:19;100085.16;;;10.18;100.00
27984;BME280;15317;50.360;8.726;2023-04-30T06:45:23;100084.78;;;10.98;98.93
27984;BME280;15317;50.360;8.726;2023-04-30T06:50:27;100077.25;;;11.46;92.27
27984;BME280;15317;50.360;8.726;2023-04-30T06:55:30;100078.16;;;11.65;91.50
27984;BME280;15317;50.360;8.726;2023-04-30T07:00:34;100069.03;;;12.01;90.58
27984;BME280;15317;50.360;8.726;2023-04-30T07:05:38;100083.25;;;12.66;84.26
27984;BME280;15317;50.360;8.726;2023-04-30T07:10:42;100084.72;;;13.30;80.17
27984;BME280;15317;50.360;8.726;2023-04-30T07:15:45;100091.16;;;14.21;76.96
27984;BME280;15317;50.360;8.726;2023-04-30T07:20:49;100099.31;;;15.34;70.94
27984;BME280;15317;50.360;8.726;2023-04-30T07:25:52;100091.31;;;15.72;69.49
27984;BME280;15317;50.360;8.726;2023-04-30T07:30:55;100087.75;;;16.02;67.87
27984;BME280;15317;50.360;8.726;2023-04-30T07:36:00;100088.06;;;16.53;65.89
27984;BME280;15317;50.360;8.726;2023-04-30T07:41:03;100098.47;;;17.47;62.23
27984;BME280;15317;50.360;8.726;2023-04-30T07:46:07;100092.47;;;17.66;59.66
27984;BME280;15317;50.360;8.726;2023-04-30T07:51:11;100091.63;;;18.38;57.59
27984;BME280;15317;50.360;8.726;2023-04-30T07:56:14;100092.31;;;18.25;56.05
27984;BME280;15317;50.360;8.726;2023-04-30T08:01:17;100094.28;;;17.95;53.29
27984;BME280;15317;50.360;8.726;2023-04-30T08:06:22;100105.31;;;18.52;52.80
27984;BME280;15317;50.360;8.726;2023-04-30T08:11:26;100118.88;;;19.24;51.56
27984;BME280;15317;50.360;8.726;2023-04-30T08:16:29;100116.44;;;19.36;56.91
27984;BME280;15317;50.360;8.726;2023-04-30T08:21:33;100115.69;;;19.83;48.60
27984;BME280;15317;50.360;8.726;2023-04-30T08:26:37;100111.88;;;19.84;49.80
27984;BME280;15317;50.360;8.726;2023-04-30T08:31:40;100108.41;;;19.69;49.68
27984;BME280;15317;50.360;8.726;2023-04-30T08:36:45;100116.34;;;19.85;50.92
27984;BME280;15317;50.360;8.726;2023-04-30T08:41:51;100116.88;;;19.67;48.00
27984;BME280;15317;50.360;8.726;2023-04-30T08:46:56;100109.47;;;19.68;47.37
27984;BME280;15317;50.360;8.726;2023-04-30T08:52:01;100104.66;;;19.83;49.24
27984;BME280;15317;50.360;8.726;2023-04-30T08:57:04;100092.00;;;20.02;52.15
27984;BME280;15317;50.360;8.726;2023-04-30T09:02:07;100108.47;;;19.82;49.82
27984;BME280;15317;50.360;8.726;2023-04-30T09:07:13;100091.94;;;20.36;47.96
27984;BME280;15317;50.360;8.726;2023-04-30T09:12:17;100091.34;;;19.52;50.03
27984;BME280;15317;50.360;8.726;2023-04-30T09:17:21;100095.81;;;20.68;47.17
27984;BME280;15317;50.360;8.726;2023-04-30T09:22:25;100092.47;;;20.05;48.93
27984;BME280;15317;50.360;8.726;2023-04-30T09:27:28;100083.28;;;20.59;51.18
27984;BME280;15317;50.360;8.726;2023-04-30T09:32:32;100087.84;;;20.19;43.89
27984;BME280;15317;50.360;8.726;2023-04-30T09:37:37;100087.13;;;20.78;51.04
27984;BME280;15317;50.360;8.726;2023-04-30T09:42:56;100088.78;;;20.39;49.39
27984;BME280;15317;50.360;8.726;2023-04-30T09:48:01;100073.53;;;21.16;48.27
27984;BME280;15317;50.360;8.726;2023-04-30T09:53:20;100070.75;;;20.76;44.39
27984;BME280;15317;50.360;8.726;2023-04-30T09:58:26;100066.31;;;20.82;45.02
27984;BME280;15317;50.360;8.726;2023-04-30T10:03:30;100062.06;;;20.79;46.89
27984;BME280;15317;50.360;8.726;2023-04-30T10:08:39;100068.56;;;21.57;44.71
27984;BME280;15317;50.360;8.726;2023-04-30T10:13:49;100048.63;;;22.76;38.19
27984;BME280;15317;50.360;8.726;2023-04-30T10:18:55;100036.53;;;21.37;47.44
27984;BME280;15317;50.360;8.726;2023-04-30T10:24:02;100032.72;;;22.33;41.09
27984;BME280;15317;50.360;8.726;2023-04-30T10:29:08;100034.63;;;21.95;40.44
27984;BME280;15317;50.360;8.726;2023-04-30T10:34:18;100029.66;;;23.22;41.54
27984;BME280;15317;50.360;8.726;2023-04-30T10:39:26;100012.81;;;22.50;43.43
27984;BME280;15317;50.360;8.726;2023-04-30T10:44:31;99995.63;;;21.58;43.66
27984;BME280;15317;50.360;8.726;2023-04-30T10:49:35;99993.75;;;22.91;40.15
27984;BME280;15317;50.360;8.726;2023-04-30T10:54:48;99991.75;;;22.98;41.47
27984;BME280;15317;50.360;8.726;2023-04-30T11:05:17;99980.06;;;23.14;40.33
27984;BME280;15317;50.360;8.726;2023-04-30T11:10:23;99973.00;;;23.37;41.01
27984;BME280;15317;50.360;8.726;2023-04-30T11:15:35;99982.84;;;23.33;36.58
27984;BME280;15317;50.360;8.726;2023-04-30T11:20:48;99985.09;;;22.81;38.52
27984;BME280;15317;50.360;8.726;2023-04-30T11:25:54;99975.41;;;22.65;37.27
27984;BME280;15317;50.360;8.726;2023-04-30T11:30:59;99979.28;;;23.07;40.89
27984;BME280;15317;50.360;8.726;2023-04-30T11:36:03;99972.44;;;22.92;37.77
27984;BME280;15317;50.360;8.726;2023-04-30T11:41:11;99967.66;;;22.24;37.24
27984;BME280;15317;50.360;8.726;2023-04-30T11:46:15;99955.06;;;21.97;40.93
27984;BME280;15317;50.360;8.726;2023-04-30T11:51:20;99951.78;;;22.63;38.87
27984;BME280;15317;50.360;8.726;2023-04-30T11:56:26;99951.13;;;23.10;38.88
27984;BME280;15317;50.360;8.726;2023-04-30T12:01:29;99951.16;;;22.36;39.51
27984;BME280;15317;50.360;8.726;2023-04-30T12:06:34;99937.63;;;20.87;41.27
27984;BME280;15317;50.360;8.726;2023-04-30T12:11:38;99930.81;;;21.54;39.14
27984;BME280;15317;50.360;8.726;2023-04-30T12:16:44;99926.41;;;21.40;43.20
27984;BME280;15317;50.360;8.726;2023-04-30T12:21:50;99923.44;;;21.80;43.21
27984;BME280;15317;50.360;8.726;2023-04-30T12:26:58;99920.03;;;22.40;37.16
27984;BME280;15317;50.360;8.726;2023-04-30T12:32:02;99923.13;;;21.94;37.66
27984;BME280;15317;50.360;8.726;2023-04-30T12:37:05;99920.47;;;23.42;39.81
27984;BME280;15317;50.360;8.726;2023-04-30T12:42:10;99937.53;;;22.10;37.91
27984;BME280;15317;50.360;8.726;2023-04-30T12:47:14;99918.75;;;20.65;41.68
27984;BME280;15317;50.360;8.726;2023-04-30T12:52:22;99908.41;;;21.24;39.58
27984;BME280;15317;50.360;8.726;2023-04-30T12:57:27;99909.19;;;21.83;38.90
27984;BME280;15317;50.360;8.726;2023-04-30T13:02:30;99904.06;;;20.84;37.79
27984;BME280;15317;50.360;8.726;2023-04-30T13:07:37;99890.84;;;22.44;38.96
27984;BME280;15317;50.360;8.726;2023-04-30T13:12:42;99877.69;;;20.95;38.37
27984;BME280;15317;50.360;8.726;2023-04-30T13:17:45;99879.25;;;21.35;37.99
27984;BME280;15317;50.360;8.726;2023-04-30T13:22:48;99876.56;;;21.09;38.10
27984;BME280;15317;50.360;8.726;2023-04-30T13:27:53;99867.63;;;20.36;40.09
27984;BME280;15317;50.360;8.726;2023-04-30T13:32:56;99861.19;;;20.68;38.47
27984;BME280;15317;50.360;8.726;2023-04-30T13:38:00;99850.91;;;21.46;38.48
27984;BME280;15317;50.360;8.726;2023-04-30T13:43:04;99856.53;;;21.64;35.55
27984;BME280;15317;50.360;8.726;2023-04-30T13:48:08;99845.75;;;22.80;36.76
27984;BME280;15317;50.360;8.726;2023-04-30T13:53:11;99839.75;;;22.65;37.70
27984;BME280;15317;50.360;8.726;2023-04-30T13:58:16;99852.00;;;23.12;36.69
27984;BME280;15317;50.360;8.726;2023-04-30T14:03:20;99831.75;;;21.83;36.85
27984;BME280;15317;50.360;8.726;2023-04-30T14:08:23;99829.84;;;21.83;37.58
27984;BME280;15317;50.360;8.726;2023-04-30T14:13:27;99830.28;;;21.49;36.74
27984;BME280;15317;50.360;8.726;2023-04-30T14:18:31;99824.94;;;19.72;39.66
27984;BME280;15317;50.360;8.726;2023-04-30T14:23:34;99816.91;;;19.71;38.85
27984;BME280;15317;50.360;8.726;2023-04-30T14:28:38;99809.84;;;20.54;39.93
27984;BME280;15317;50.360;8.726;2023-04-30T14:33:41;99815.19;;;22.08;38.04
27984;BME280;15317;50.360;8.726;2023-04-30T14:38:46;99814.25;;;21.57;35.38
27984;BME280;15317;50.360;8.726;2023-04-30T14:43:50;99800.16;;;19.99;40.02
27984;BME280;15317;50.360;8.726;2023-04-30T14:48:54;99794.22;;;19.69;41.62
27984;BME280;15317;50.360;8.726;2023-04-30T14:53:57;99789.13;;;19.66;41.30
27984;BME280;15317;50.360;8.726;2023-04-30T14:59:01;99780.94;;;20.63;39.84
27984;BME280;15317;50.360;8.726;2023-04-30T15:04:05;99783.13;;;20.48;38.02
27984;BME280;15317;50.360;8.726;2023-04-30T15:09:08;99779.19;;;20.75;37.31
27984;BME280;15317;50.360;8.726;2023-04-30T15:14:13;99769.56;;;20.91;37.53
27984;BME280;15317;50.360;8.726;2023-04-30T15:19:18;99769.81;;;20.83;37.05
27984;BME280;15317;50.360;8.726;2023-04-30T15:24:21;99761.06;;;20.41;38.29
27984;BME280;15317;50.360;8.726;2023-04-30T15:29:25;99760.47;;;20.06;38.76
27984;BME280;15317;50.360;8.726;2023-04-30T15:34:29;99754.56;;;19.83;38.79
27984;BME280;15317;50.360;8.726;2023-04-30T15:39:32;99745.44;;;19.89;39.85
27984;BME280;15317;50.360;8.726;2023-04-30T15:44:37;99749.94;;;20.74;37.55
27984;BME280;15317;50.360;8.726;2023-04-30T15:49:40;99747.06;;;20.30;42.84
27984;BME280;15317;50.360;8.726;2023-04-30T15:54:44;99738.88;;;20.74;40.13
27984;BME280;15317;50.360;8.726;2023-04-30T15:59:48;99727.44;;;19.60;40.26
27984;BME280;15317;50.360;8.726;2023-04-30T16:04:52;99728.16;;;18.82;41.64
27984;BME280;15317;50.360;8.726;2023-04-30T16:09:55;99728.31;;;18.61;41.62
27984;BME280;15317;50.360;8.726;2023-04-30T16:15:00;99724.84;;;18.52;43.31
27984;BME280;15317;50.360;8.726;2023-04-30T16:20:06;99717.91;;;18.15;43.84
27984;BME280;15317;50.360;8.726;2023-04-30T16:25:09;99710.38;;;17.96;44.83
27984;BME280;15317;50.360;8.726;2023-04-30T16:30:14;99713.03;;;17.83;45.34
27984;BME280;15317;50.360;8.726;2023-04-30T16:35:17;99709.41;;;17.75;45.61
27984;BME280;15317;50.360;8.726;2023-04-30T16:40:20;99712.31;;;18.02;47.68
27984;BME280;15317;50.360;8.726;2023-04-30T16:45:25;99705.25;;;17.86;47.64
27984;BME280;15317;50.360;8.726;2023-04-30T16:50:29;99692.44;;;18.00;49.91
27984;BME280;15317;50.360;8.726;2023-04-30T16:55:32;99697.22;;;17.85;47.93
27984;BME280;15317;50.360;8.726;2023-04-30T17:00:36;99692.63;;;17.98;46.11
27984;BME280;15317;50.360;8.726;2023-04-30T17:05:39;99691.13;;;17.96;45.43
27984;BME280;15317;50.360;8.726;2023-04-30T17:10:43;99690.16;;;17.75;44.14
27984;BME280;15317;50.360;8.726;2023-04-30T17:15:47;99676.81;;;17.66;44.15
27984;BME280;15317;50.360;8.726;2023-04-30T17:20:50;99672.59;;;17.70;45.30
27984;BME280;15317;50.360;8.726;2023-04-30T17:25:53;99681.94;;;17.54;47.70
27984;BME280;15317;50.360;8.726;2023-04-30T17:30:58;99687.50;;;17.33;47.40
27984;BME280;15317;50.360;8.726;2023-04-30T17:36:04;99682.41;;;17.09;47.78
27984;BME280;15317;50.360;8.726;2023-04-30T17:41:08;99678.88;;;16.93;46.84
27984;BME280;15317;50.360;8.726;2023-04-30T17:46:12;99687.41;;;16.77;50.01
27984;BME280;15317;50.360;8.726;2023-04-30T17:51:16;99687.34;;;16.56;48.67
27984;BME280;15317;50.360;8.726;2023-04-30T17:56:19;99676.50;;;16.33;52.96
27984;BME280;15317;50.360;8.726;2023-04-30T18:01:23;99675.13;;;16.23;52.01
27984;BME280;15317;50.360;8.726;2023-04-30T18:06:26;99672.69;;;15.98;53.88
27984;BME280;15317;50.360;8.726;2023-04-30T18:11:30;99670.78;;;15.84;53.08
27984;BME280;15317;50.360;8.726;2023-04-30T18:16:35;99665.66;;;15.52;56.70
27984;BME280;15317;50.360;8.726;2023-04-30T18:21:38;99662.63;;;15.32;56.95
27984;BME280;15317;50.360;8.726;2023-04-30T18:26:41;99663.88;;;15.07;56.43
27984;BME280;15317;50.360;8.726;2023-04-30T18:31:47;99660.19;;;14.77;58.70
27984;BME280;15317;50.360;8.726;2023-04-30T18:36:50;99655.75;;;14.53;60.09
27984;BME280;15317;50.360;8.726;2023-04-30T18:41:53;99661.63;;;14.34;58.06
27984;BME280;15317;50.360;8.726;2023-04-30T18:46:58;99663.25;;;14.20;58.79
27984;BME280;15317;50.360;8.726;2023-04-30T18:52:01;99656.78;;;14.13;58.61
27984;BME280;15317;50.360;8.726;2023-04-30T18:57:04;99654.50;;;13.94;60.00
27984;BME280;15317;50.360;8.726;2023-04-30T19:02:11;99657.78;;;13.89;59.81
27984;BME280;15317;50.360;8.726;2023-04-30T19:07:15;99655.94;;;13.73;59.93
27984;BME280;15317;50.360;8.726;2023-04-30T19:12:18;99661.50;;;13.49;62.54
27984;BME280;15317;50.360;8.726;2023-04-30T19:17:22;99670.41;;;13.27;63.70
27984;BME280;15317;50.360;8.726;2023-04-30T19:22:26;99685.38;;;13.06;65.00
27984;BME280;15317;50.360;8.726;2023-04-30T19:27:29;99684.19;;;12.85;66.25
27984;BME280;15317;50.360;8.726;2023-04-30T19:32:34;99686.38;;;12.65;68.13
27984;BME280;15317;50.360;8.726;2023-04-30T19:37:37;99679.50;;;12.37;71.08
27984;BME280;15317;50.360;8.726;2023-04-30T19:42:41;99683.56;;;12.24;73.46
27984;BME280;15317;50.360;8.726;2023-04-30T19:47:45;99686.63;;;12.13;73.78
27984;BME280;15317;50.360;8.726;2023-04-30T19:52:48;99684.00;;;12.04;73.62
27984;BME280;15317;50.360;8.726;2023-04-30T19:57:52;99675.66;;;11.97;74.27
27984;BME280;15317;50.360;8.726;2023-04-30T20:02:56;99681.00;;;11.81;75.53
27984;BME280;15317;50.360;8.726;2023-04-30T20:08:02;99683.59;;;11.57;78.63
27984;BME280;15317;50.360;8.726;2023-04-30T20:13:08;99676.03;;;11.42;81.04
27984;BME280;15317;50.360;8.726;2023-04-30T20:18:12;99677.31;;;11.30;80.62
27984;BME280;15317;50.360;8.726;2023-04-30T20:23:16;99672.13;;;11.19;81.09
27984;BME280;15317;50.360;8.726;2023-04-30T20:28:20;99680.25;;;11.11;82.39
27984;BME280;15317;50.360;8.726;2023-04-30T20:33:24;99678.69;;;11.08;82.00
27984;BME280;15317;50.360;8.726;2023-04-30T20:38:29;99681.03;;;11.03;84.42
27984;BME280;15317;50.360;8.726;2023-04-30T20:43:32;99680.47;;;11.00;82.29
27984;BME280;15317;50.360;8.726;2023-04-30T20:48:37;99687.97;;;10.98;82.98
27984;BME280;15317;50.360;8.726;2023-04-30T20:53:41;99680.19;;;11.03;82.47
27984;BME280;15317;50.360;8.726;2023-04-30T20:58:44;99683.69;;;10.95;84.04
27984;BME280;15317;50.360;8.726;2023-04-30T21:03:49;99686.53;;;10.94;83.00
27984;BME280;15317;50.360;8.726;2023-04-30T21:08:52;99689.72;;;11.07;81.13
27984;BME280;15317;50.360;8.726;2023-04-30T21:13:56;99689.34;;;11.02;82.76
27984;BME280;15317;50.360;8.726;2023-04-30T21:19:00;99686.31;;;10.87;84.53
27984;BME280;15317;50.360;8.726;2023-04-30T21:24:03;99684.31;;;10.72;84.70
27984;BME280;15317;50.360;8.726;2023-04-30T21:29:07;99695.91;;;10.56;85.90
27984;BME280;15317;50.360;8.726;2023-04-30T21:34:12;99688.91;;;10.53;87.27
27984;BME280;15317;50.360;8.726;2023-04-30T21:39:15;99687.19;;;10.52;89.20
27984;BME280;15317;50.360;8.726;2023-04-30T21:44:18;99680.28;;;10.58;86.17
27984;BME280;15317;50.360;8.726;2023-04-30T21:49:22;99687.81;;;10.46;86.96
27984;BME280;15317;50.360;8.726;2023-04-30T21:54:26;99683.00;;;10.40;88.44
27984;BME280;15317;50.360;8.726;2023-04-30T21:59:32;99683.22;;;10.29;87.97
27984;BME280;15317;50.360;8.726;2023-04-30T22:04:37;99677.09;;;10.27;88.96
27984;BME280;15317;50.360;8.726;2023-04-30T22:09:40;99669.84;;;10.18;89.10
27984;BME280;15317;50.360;8.726;2023-04-30T22:14:45;99664.88;;;10.13;91.61
27984;BME280;15317;50.360;8.726;2023-04-30T22:19:51;99664.84;;;10.23;88.47
27984;BME280;15317;50.360;8.726;2023-04-30T22:24:55;99663.44;;;10.19;89.40
27984;BME280;15317;50.360;8.726;2023-04-30T22:29:58;99655.47;;;10.08;90.13
27984;BME280;15317;50.360;8.726;2023-04-30T22:35:02;99665.63;;;10.06;89.84
27984;BME280;15317;50.360;8.726;2023-04-30T22:40:08;99668.94;;;10.00;89.95
27984;BME280;15317;50.360;8.726;2023-04-30T22:45:11;99662.88;;;9.88;91.75
27984;BME280;15317;50.360;8.726;2023-04-30T22:50:15;99660.22;;;9.78;92.65
27984;BME280;15317;50.360;8.726;2023-04-30T22:55:18;99662.53;;;9.73;92.18
27984;BME280;15317;50.360;8.726;2023-04-30T23:00:21;99661.66;;;9.73;94.87
27984;BME280;15317;50.360;8.726;2023-04-30T23:05:26;99660.53;;;9.75;94.28
27984;BME280;15317;50.360;8.726;2023-04-30T23:10:29;99662.16;;;9.86;92.76
27984;BME280;15317;50.360;8.726;2023-04-30T23:15:32;99662.66;;;9.99;93.66
27984;BME280;15317;50.360;8.726;2023-04-30T23:20:38;99657.00;;;10.10;91.06
27984;BME280;15317;50.360;8.726;2023-04-30T23:25:41;99656.44;;;10.16;90.00
27984;BME280;15317;50.360;8.726;2023-04-30T23:30:45;99652.56;;;10.19;90.43
27984;BME280;15317;50.360;8.726;2023-04-30T23:35:50;99649.00;;;10.18;91.06
27984;BME280;15317;50.360;8.726;2023-04-30T23:40:54;99645.34;;;10.10;92.01
27984;BME280;15317;50.360;8.726;2023-04-30T23:45:58;99639.09;;;10.00;92.56
27984;BME280;15317;50.360;8.726;2023-04-30T23:51:03;99627.84;;;9.95;88.99
27984;BME280;15317;50.360;8.726;2023-04-30T23:56:09;99621.34;;;9.87;90.45
